createdAt,value
2018-11-10T00:02:16.014Z,100.00
2018-11-10T00:04:46.000Z,100.00
2018-11-10T00:07:15.849Z,100.00
2018-11-10T00:09:45.714Z,100.00
2018-11-10T00:12:15.554Z,100.00
2018-11-10T00:14:45.330Z,100.00
2018-11-10T00:17:15.102Z,100.00
2018-11-10T00:19:44.870Z,100.00
2018-11-10T00:22:14.719Z,100.00
2018-11-10T00:24:44.495Z,100.00
2018-11-10T00:27:14.337Z,100.00
2018-11-10T00:29:44.110Z,100.00
2018-11-10T00:32:13.975Z,100.00
2018-11-10T00:34:43.894Z,100.00
2018-11-10T00:37:13.697Z,100.00
2018-11-10T00:39:43.582Z,100.00
2018-11-10T00:42:13.448Z,100.00
2018-11-10T00:44:43.340Z,100.00
2018-11-10T00:47:13.176Z,100.00
2018-11-10T00:49:43.041Z,100.00
2018-11-10T00:52:12.854Z,100.00
2018-11-10T00:54:42.795Z,100.00
2018-11-10T00:57:12.730Z,100.00
2018-11-10T00:59:42.605Z,100.00
2018-11-10T01:02:12.627Z,100.00
2018-11-10T01:04:42.442Z,100.00
2018-11-10T01:07:12.617Z,100.00
2018-11-10T01:09:42.728Z,100.00
2018-11-10T01:12:12.619Z,100.00
2018-11-10T01:14:42.374Z,100.00
2018-11-10T01:17:12.226Z,100.00
2018-11-10T01:19:42.017Z,100.00
2018-11-10T01:22:11.862Z,100.00
2018-11-10T01:24:41.668Z,100.00
2018-11-10T01:27:11.466Z,100.00
2018-11-10T01:29:41.306Z,100.00
2018-11-10T01:32:11.105Z,100.00
2018-11-10T01:34:40.898Z,100.00
2018-11-10T01:37:10.703Z,100.00
2018-11-10T01:39:40.525Z,100.00
2018-11-10T01:42:10.333Z,100.00
2018-11-10T01:44:40.158Z,100.00
2018-11-10T01:47:09.918Z,100.00
2018-11-10T01:49:39.827Z,100.00
2018-11-10T01:52:09.615Z,100.00
2018-11-10T01:54:39.430Z,100.00
2018-11-10T01:57:09.371Z,100.00
2018-11-10T01:59:39.159Z,100.00
2018-11-10T02:02:08.985Z,100.00
2018-11-10T02:04:38.888Z,100.00
2018-11-10T02:07:08.683Z,100.00
2018-11-10T02:09:38.614Z,100.00
2018-11-10T02:12:08.412Z,100.00
2018-11-10T02:14:38.238Z,100.00
2018-11-10T02:17:08.019Z,100.00
2018-11-10T02:19:37.850Z,100.00
2018-11-10T02:22:07.781Z,100.00
2018-11-10T02:24:37.643Z,100.00
2018-11-10T02:27:12.938Z,100.00
2018-11-10T02:29:42.770Z,100.00
2018-11-10T02:32:12.794Z,100.00
2018-11-10T02:34:42.681Z,100.00
2018-11-10T02:37:12.452Z,100.00
2018-11-10T02:39:42.587Z,100.00
2018-11-10T02:42:12.410Z,100.00
2018-11-10T02:44:42.236Z,100.00
2018-11-10T02:47:12.051Z,100.00
2018-11-10T02:49:41.982Z,100.00
2018-11-10T02:52:11.751Z,100.00
2018-11-10T02:54:41.558Z,100.00
2018-11-10T02:57:11.358Z,100.00
2018-11-10T02:59:41.255Z,100.00
2018-11-10T03:02:11.158Z,100.00
2018-11-10T03:04:41.047Z,100.00
2018-11-10T03:07:10.831Z,100.00
2018-11-10T03:09:40.650Z,100.00
2018-11-10T03:12:10.429Z,100.00
2018-11-10T03:14:40.318Z,100.00
2018-11-10T03:17:10.214Z,100.00
2018-11-10T03:19:40.027Z,100.00
2018-11-10T03:22:09.813Z,100.00
2018-11-10T03:24:39.632Z,100.00
2018-11-10T03:27:10.462Z,100.00
2018-11-10T03:29:40.318Z,100.00
2018-11-10T03:32:11.110Z,100.00
2018-11-10T03:34:40.936Z,100.00
2018-11-10T03:37:10.710Z,100.00
2018-11-10T03:39:40.601Z,100.00
2018-11-10T03:42:10.442Z,100.00
2018-11-10T03:44:40.344Z,100.00
2018-11-10T03:47:10.191Z,100.00
2018-11-10T03:49:40.011Z,100.00
2018-11-10T03:52:09.812Z,100.00
2018-11-10T03:54:39.911Z,100.00
2018-11-10T03:57:09.745Z,100.00
2018-11-10T03:59:39.740Z,100.00
2018-11-10T04:02:09.742Z,100.00
2018-11-10T04:04:39.878Z,100.00
2018-11-10T04:07:09.686Z,100.00
2018-11-10T04:09:39.542Z,100.00
2018-11-10T04:12:09.334Z,100.00
2018-11-10T04:14:39.166Z,100.00
2018-11-10T04:17:09.118Z,100.00
2018-11-10T04:19:39.181Z,100.00
2018-11-10T04:22:08.982Z,100.00
2018-11-10T04:24:38.807Z,100.00
2018-11-10T04:27:08.554Z,100.00
2018-11-10T04:29:38.330Z,100.00
2018-11-10T04:32:08.173Z,100.00
2018-11-10T04:34:38.067Z,100.00
2018-11-10T04:37:07.854Z,100.00
2018-11-10T04:39:37.695Z,100.00
2018-11-10T04:42:08.643Z,100.00
2018-11-10T04:44:38.465Z,100.00
2018-11-10T04:47:08.249Z,100.00
2018-11-10T04:49:38.227Z,100.00
2018-11-10T04:52:08.865Z,100.00
2018-11-10T04:54:38.664Z,100.00
2018-11-10T04:57:08.606Z,100.00
2018-11-10T04:59:38.450Z,100.00
2018-11-10T05:02:08.280Z,100.00
2018-11-10T05:04:38.070Z,100.00
2018-11-10T05:07:07.842Z,100.00
2018-11-10T05:09:37.616Z,100.00
2018-11-10T05:12:07.745Z,100.00
2018-11-10T05:14:37.539Z,100.00
2018-11-10T05:17:07.602Z,100.00
2018-11-10T05:19:37.591Z,100.00
2018-11-10T05:22:07.366Z,100.00
2018-11-10T05:24:37.190Z,100.00
2018-11-10T05:27:06.990Z,100.00
2018-11-10T05:29:36.814Z,100.00
2018-11-10T05:32:06.619Z,100.00
2018-11-10T05:34:36.438Z,100.00
2018-11-10T05:37:06.334Z,100.00
2018-11-10T05:39:36.190Z,100.00
2018-11-10T05:42:05.979Z,100.00
2018-11-10T05:44:35.754Z,100.00
2018-11-10T05:47:05.614Z,100.00
2018-11-10T05:49:35.444Z,100.00
2018-11-10T05:52:05.898Z,100.00
2018-11-10T05:54:35.785Z,100.00
2018-11-10T05:57:05.627Z,100.00
2018-11-10T05:59:35.492Z,100.00
2018-11-10T06:02:05.591Z,100.00
2018-11-10T06:04:35.416Z,100.00
2018-11-10T06:07:05.465Z,100.00
2018-11-10T06:09:35.335Z,100.00
2018-11-10T06:12:05.193Z,100.00
2018-11-10T06:14:35.107Z,100.00
2018-11-10T06:17:05.335Z,100.00
2018-11-10T06:19:35.110Z,100.00
2018-11-10T06:22:04.967Z,100.00
2018-11-10T06:24:34.837Z,100.00
2018-11-10T06:27:04.655Z,100.00
2018-11-10T06:29:34.471Z,100.00
2018-11-10T06:32:04.318Z,100.00
2018-11-10T06:34:34.198Z,100.00
2018-11-10T06:37:04.138Z,100.00
2018-11-10T06:39:33.928Z,100.00
2018-11-10T06:42:03.733Z,100.00
2018-11-10T06:44:33.614Z,100.00
2018-11-10T06:47:03.494Z,100.00
2018-11-10T06:49:33.386Z,100.00
2018-11-10T06:52:03.235Z,100.00
2018-11-10T06:54:33.097Z,100.00
2018-11-10T06:57:02.910Z,100.00
2018-11-10T06:59:32.787Z,100.00
2018-11-10T07:02:02.662Z,100.00
2018-11-10T07:04:32.830Z,100.00
2018-11-10T07:07:03.058Z,100.00
2018-11-10T07:09:33.099Z,100.00
2018-11-10T07:12:02.910Z,100.00
2018-11-10T07:14:32.725Z,100.00
2018-11-10T07:17:02.543Z,100.00
2018-11-10T07:19:32.366Z,100.00
2018-11-10T07:22:02.254Z,100.00
2018-11-10T07:24:32.106Z,100.00
2018-11-10T07:27:01.933Z,100.00
2018-11-10T07:29:31.727Z,100.00
2018-11-10T07:32:02.019Z,100.00
2018-11-10T07:34:32.135Z,100.00
2018-11-10T07:37:02.007Z,100.00
2018-11-10T07:39:31.801Z,100.00
2018-11-10T07:42:01.578Z,100.00
2018-11-10T07:44:31.590Z,100.00
2018-11-10T07:47:01.459Z,100.00
2018-11-10T07:49:31.398Z,100.00
2018-11-10T07:52:02.210Z,100.00
2018-11-10T07:54:31.996Z,100.00
2018-11-10T07:57:01.843Z,100.00
2018-11-10T07:59:31.629Z,100.00
2018-11-10T08:02:01.436Z,100.00
2018-11-10T08:04:31.246Z,100.00
2018-11-10T08:07:01.094Z,100.00
2018-11-10T08:09:30.970Z,100.00
2018-11-10T08:12:00.831Z,99.78
2018-11-10T08:14:30.595Z,99.04
2018-11-10T08:17:00.391Z,96.10
2018-11-10T08:19:30.238Z,96.51
2018-11-10T08:22:00.014Z,96.25
2018-11-10T08:24:29.897Z,94.78
2018-11-10T08:26:59.758Z,95.90
2018-11-10T08:29:30.117Z,95.86
2018-11-10T08:31:59.915Z,95.28
2018-11-10T08:34:29.850Z,95.13
2018-11-10T08:36:59.670Z,94.95
2018-11-10T08:39:29.604Z,94.89
2018-11-10T08:41:59.449Z,92.31
2018-11-10T08:44:29.280Z,91.57
2018-11-10T08:46:59.105Z,92.45
2018-11-10T08:49:28.896Z,90.46
2018-11-10T08:51:58.743Z,91.01
2018-11-10T08:54:28.541Z,91.53
2018-11-10T08:56:58.413Z,90.21
2018-11-10T08:59:28.279Z,90.31
2018-11-10T09:01:58.050Z,90.98
2018-11-10T09:04:27.916Z,89.37
2018-11-10T09:06:57.779Z,88.24
2018-11-10T09:09:27.631Z,87.66
2018-11-10T09:11:57.427Z,88.18
2018-11-10T09:14:27.266Z,84.81
2018-11-10T09:16:57.180Z,82.07
2018-11-10T09:19:26.958Z,82.15
2018-11-10T09:21:56.902Z,81.72
2018-11-10T09:24:26.664Z,81.59
2018-11-10T09:26:56.510Z,81.55
2018-11-10T09:29:26.286Z,81.20
2018-11-10T09:31:56.131Z,80.62
2018-11-10T09:34:25.894Z,80.04
2018-11-10T09:36:55.747Z,79.38
2018-11-10T09:39:25.541Z,78.43
2018-11-10T09:41:55.583Z,77.26
2018-11-10T09:44:25.384Z,78.08
2018-11-10T09:46:55.219Z,79.86
2018-11-10T09:49:24.998Z,75.50
2018-11-10T09:51:54.830Z,75.84
2018-11-10T09:54:24.635Z,74.94
2018-11-10T09:56:54.522Z,72.83
2018-11-10T09:59:24.278Z,71.46
2018-11-10T10:01:54.469Z,71.50
2018-11-10T10:04:24.090Z,66.73
2018-11-10T10:06:53.939Z,65.65
2018-11-10T10:09:23.677Z,65.11
2018-11-10T10:11:53.587Z,61.13
2018-11-10T10:14:23.445Z,58.94
2018-11-10T10:16:53.287Z,56.93
2018-11-10T10:19:23.859Z,58.61
2018-11-10T10:21:53.783Z,59.55
2018-11-10T10:24:23.500Z,60.11
2018-11-10T10:26:53.354Z,63.92
2018-11-10T10:29:23.338Z,64.44
2018-11-10T10:31:53.191Z,62.85
2018-11-10T10:34:23.169Z,62.53
2018-11-10T10:36:52.938Z,62.52
2018-11-10T10:39:22.778Z,62.34
2018-11-10T10:41:52.903Z,61.33
2018-11-10T10:44:22.714Z,62.57
2018-11-10T10:46:52.851Z,62.45
2018-11-10T10:49:22.667Z,61.19
2018-11-10T10:51:52.498Z,60.87
2018-11-10T10:54:22.298Z,60.48
2018-11-10T10:56:52.195Z,56.75
2018-11-10T10:59:22.010Z,55.53
2018-11-10T11:01:56.959Z,51.96
2018-11-10T11:04:32.127Z,49.21
2018-11-10T11:07:01.946Z,48.11
2018-11-10T11:09:31.730Z,46.45
2018-11-10T11:12:01.579Z,45.68
2018-11-10T11:14:31.327Z,44.64
2018-11-10T11:17:01.199Z,43.01
2018-11-10T11:19:31.028Z,43.26
2018-11-10T11:22:00.934Z,39.40
2018-11-10T11:24:30.691Z,41.47
2018-11-10T11:27:00.528Z,38.76
2018-11-10T11:29:30.313Z,39.51
2018-11-10T11:32:00.215Z,38.03
2018-11-10T11:34:30.285Z,39.83
2018-11-10T11:37:00.131Z,43.62
2018-11-10T11:39:29.974Z,46.51
2018-11-10T11:41:59.816Z,50.45
2018-11-10T11:44:29.633Z,53.25
2018-11-10T11:46:59.498Z,55.02
2018-11-10T11:49:29.343Z,58.67
2018-11-10T11:51:59.122Z,59.98
2018-11-10T11:54:28.959Z,59.77
2018-11-10T11:56:58.880Z,62.86
2018-11-10T11:59:29.539Z,65.37
2018-11-10T12:01:59.958Z,65.39
2018-11-10T12:04:29.782Z,66.99
2018-11-10T12:06:59.681Z,67.03
2018-11-10T12:09:29.504Z,65.72
2018-11-10T12:11:59.278Z,65.66
2018-11-10T12:14:29.106Z,65.86
2018-11-10T12:16:59.226Z,66.66
2018-11-10T12:19:29.026Z,67.48
2018-11-10T12:21:59.396Z,68.97
2018-11-10T12:24:29.192Z,67.47
2018-11-10T12:26:59.059Z,69.63
2018-11-10T12:29:28.790Z,68.89
2018-11-10T12:31:58.703Z,69.50
2018-11-10T12:34:28.421Z,69.46
2018-11-10T12:36:58.271Z,69.39
2018-11-10T12:39:28.135Z,69.18
2018-11-10T12:41:57.998Z,70.04
2018-11-10T12:44:27.813Z,71.99
2018-11-10T12:46:57.624Z,71.13
2018-11-10T12:49:27.375Z,72.29
2018-11-10T12:51:57.357Z,71.44
2018-11-10T12:54:27.119Z,70.98
2018-11-10T12:56:56.974Z,70.14
2018-11-10T12:59:26.776Z,70.70
2018-11-10T13:01:56.565Z,70.67
2018-11-10T13:04:26.848Z,72.43
2018-11-10T13:06:56.999Z,72.94
2018-11-10T13:09:26.822Z,74.68
2018-11-10T13:11:56.682Z,75.02
2018-11-10T13:14:26.491Z,75.33
2018-11-10T13:16:56.300Z,75.42
2018-11-10T13:19:26.110Z,77.59
2018-11-10T13:21:55.888Z,78.12
2018-11-10T13:24:26.659Z,75.38
2018-11-10T13:26:56.435Z,75.26
2018-11-10T13:29:26.284Z,75.09
2018-11-10T13:31:56.144Z,74.08
2018-11-10T13:34:25.963Z,76.91
2018-11-10T13:36:55.783Z,76.74
2018-11-10T13:39:25.586Z,74.73
2018-11-10T13:41:55.409Z,76.43
2018-11-10T13:44:25.289Z,75.70
2018-11-10T13:46:55.055Z,74.03
2018-11-10T13:49:24.902Z,74.27
2018-11-10T13:51:55.245Z,74.79
2018-11-10T13:54:24.552Z,76.39
2018-11-10T13:56:54.413Z,75.66
2018-11-10T13:59:24.447Z,76.19
2018-11-10T14:01:54.243Z,75.71
2018-11-10T14:04:24.013Z,76.69
2018-11-10T14:06:53.770Z,77.11
2018-11-10T14:09:23.595Z,77.57
2018-11-10T14:11:53.366Z,78.36
2018-11-10T14:14:23.873Z,79.86
2018-11-10T14:16:53.733Z,79.26
2018-11-10T14:19:23.502Z,78.63
2018-11-10T14:21:53.349Z,78.02
2018-11-10T14:24:23.148Z,78.61
2018-11-10T14:26:53.051Z,78.96
2018-11-10T14:29:22.910Z,79.52
2018-11-10T14:31:52.711Z,79.00
2018-11-10T14:34:22.502Z,80.27
2018-11-10T14:36:52.382Z,79.07
2018-11-10T14:39:22.249Z,79.07
2018-11-10T14:41:52.339Z,80.45
2018-11-10T14:44:22.332Z,80.29
2018-11-10T14:46:52.319Z,80.48
2018-11-10T14:49:22.286Z,82.24
2018-11-10T14:51:52.246Z,82.03
2018-11-10T14:54:22.014Z,83.17
2018-11-10T14:56:51.902Z,84.63
2018-11-10T14:59:21.788Z,83.04
2018-11-10T15:01:51.583Z,82.80
2018-11-10T15:04:21.404Z,84.01
2018-11-10T15:06:51.331Z,84.70
2018-11-10T15:09:21.106Z,85.09
2018-11-10T15:11:51.080Z,85.68
2018-11-10T15:14:20.855Z,86.50
2018-11-10T15:16:50.922Z,87.32
2018-11-10T15:19:20.825Z,86.93
2018-11-10T15:21:50.866Z,87.15
2018-11-10T15:24:20.614Z,87.18
2018-11-10T15:26:50.436Z,88.02
2018-11-10T15:29:20.321Z,86.62
2018-11-10T15:31:50.476Z,88.18
2018-11-10T15:34:20.500Z,88.62
2018-11-10T15:36:50.422Z,88.63
2018-11-10T15:39:20.350Z,88.02
2018-11-10T15:41:50.125Z,87.62
2018-11-10T15:44:19.948Z,89.13
2018-11-10T15:46:49.963Z,89.26
2018-11-10T15:49:19.822Z,92.06
2018-11-10T15:51:49.902Z,91.50
2018-11-10T15:54:19.727Z,93.37
2018-11-10T15:56:49.498Z,93.72
2018-11-10T15:59:19.374Z,94.94
2018-11-10T16:01:49.328Z,95.32
2018-11-10T16:04:19.283Z,96.62
2018-11-10T16:06:49.086Z,97.71
2018-11-10T16:09:20.386Z,98.82
2018-11-10T16:11:50.233Z,96.51
2018-11-10T16:14:20.044Z,100.00
2018-11-10T16:16:49.866Z,100.00
2018-11-10T16:19:19.686Z,100.00
2018-11-10T16:21:49.469Z,99.67
2018-11-10T16:24:19.302Z,100.00
2018-11-10T16:26:49.122Z,100.00
2018-11-10T16:29:18.948Z,100.00
2018-11-10T16:31:48.811Z,100.00
2018-11-10T16:34:18.820Z,100.00
2018-11-10T16:36:48.736Z,100.00
2018-11-10T16:39:18.701Z,100.00
2018-11-10T16:41:48.627Z,100.00
2018-11-10T16:44:18.526Z,100.00
2018-11-10T16:46:48.633Z,100.00
2018-11-10T16:49:18.493Z,100.00
2018-11-10T16:51:49.929Z,100.00
2018-11-10T16:54:20.243Z,100.00
2018-11-10T16:56:50.111Z,100.00
2018-11-10T16:59:20.011Z,100.00
2018-11-10T17:01:50.130Z,100.00
2018-11-10T17:04:20.331Z,100.00
2018-11-10T17:06:50.214Z,100.00
2018-11-10T17:09:20.830Z,100.00
2018-11-10T17:11:50.830Z,100.00
2018-11-10T17:14:20.770Z,100.00
2018-11-10T17:16:50.757Z,100.00
2018-11-10T17:19:20.615Z,100.00
2018-11-10T17:21:50.672Z,100.00
2018-11-10T17:24:20.492Z,100.00
2018-11-10T17:26:50.783Z,100.00
2018-11-10T17:29:20.575Z,100.00
2018-11-10T17:31:50.490Z,100.00
2018-11-10T17:34:20.314Z,100.00
2018-11-10T17:36:50.115Z,100.00
2018-11-10T17:39:20.168Z,100.00
2018-11-10T17:41:50.006Z,100.00
2018-11-10T17:44:19.907Z,100.00
2018-11-10T17:46:49.846Z,100.00
2018-11-10T17:49:19.699Z,100.00
2018-11-10T17:51:49.683Z,100.00
2018-11-10T17:54:19.706Z,100.00
2018-11-10T17:56:49.525Z,100.00
2018-11-10T17:59:19.378Z,100.00
2018-11-10T18:01:49.300Z,100.00
2018-11-10T18:04:18.983Z,100.00
2018-11-10T18:06:48.873Z,100.00
2018-11-10T18:09:18.709Z,100.00
2018-11-10T18:11:48.538Z,100.00
2018-11-10T18:14:18.318Z,100.00
2018-11-10T18:16:48.358Z,100.00
2018-11-10T18:19:18.179Z,100.00
2018-11-10T18:21:47.976Z,100.00
2018-11-10T18:24:17.828Z,100.00
2018-11-10T18:26:47.772Z,100.00
2018-11-10T18:29:17.650Z,100.00
2018-11-10T18:31:47.506Z,100.00
2018-11-10T18:34:17.591Z,100.00
2018-11-10T18:36:47.486Z,100.00
2018-11-10T18:39:17.435Z,100.00
2018-11-10T18:41:47.422Z,100.00
2018-11-10T18:44:17.220Z,100.00
2018-11-10T18:46:47.105Z,100.00
2018-11-10T18:49:17.122Z,100.00
2018-11-10T18:51:46.888Z,100.00
2018-11-10T18:54:16.794Z,100.00
2018-11-10T18:56:46.598Z,100.00
2018-11-10T18:59:16.418Z,100.00
2018-11-10T19:01:46.302Z,100.00
2018-11-10T19:04:16.382Z,100.00
2018-11-10T19:06:46.279Z,100.00
2018-11-10T19:09:16.353Z,100.00
2018-11-10T19:11:46.190Z,100.00
2018-11-10T19:14:16.087Z,100.00
2018-11-10T19:16:46.154Z,100.00
2018-11-10T19:19:16.046Z,100.00
2018-11-10T19:21:45.857Z,100.00
2018-11-10T19:24:15.666Z,100.00
2018-11-10T19:26:45.438Z,100.00
2018-11-10T19:29:15.287Z,100.00
2018-11-10T19:31:45.073Z,100.00
2018-11-10T19:34:15.635Z,100.00
2018-11-10T19:36:45.514Z,100.00
2018-11-10T19:39:15.431Z,100.00
2018-11-10T19:41:45.242Z,100.00
2018-11-10T19:44:15.173Z,100.00
2018-11-10T19:46:45.010Z,100.00
2018-11-10T19:49:14.822Z,100.00
2018-11-10T19:51:44.759Z,100.00
2018-11-10T19:54:14.426Z,100.00
2018-11-10T19:56:44.283Z,100.00
2018-11-10T19:59:14.180Z,100.00
2018-11-10T20:01:44.297Z,100.00
2018-11-10T20:04:14.683Z,100.00
2018-11-10T20:06:44.526Z,100.00
2018-11-10T20:09:14.337Z,100.00
2018-11-10T20:11:44.355Z,100.00
2018-11-10T20:14:14.263Z,100.00
2018-11-10T20:16:44.057Z,100.00
2018-11-10T20:19:13.887Z,100.00
2018-11-10T20:21:43.711Z,100.00
2018-11-10T20:24:13.754Z,100.00
2018-11-10T20:26:43.670Z,100.00
2018-11-10T20:29:13.569Z,100.00
2018-11-10T20:31:44.406Z,100.00
2018-11-10T20:34:14.302Z,100.00
2018-11-10T20:36:44.094Z,100.00
2018-11-10T20:39:14.023Z,100.00
2018-11-10T20:41:43.819Z,100.00
2018-11-10T20:44:13.665Z,100.00
2018-11-10T20:46:43.498Z,100.00
2018-11-10T20:49:13.389Z,100.00
2018-11-10T20:51:43.168Z,100.00
2018-11-10T20:54:13.041Z,100.00
2018-11-10T20:56:42.895Z,100.00
2018-11-10T20:59:12.790Z,100.00
2018-11-10T21:01:42.670Z,100.00
2018-11-10T21:04:12.479Z,100.00
2018-11-10T21:06:42.248Z,100.00
2018-11-10T21:09:12.922Z,100.00
2018-11-10T21:11:42.692Z,100.00
2018-11-10T21:14:13.339Z,100.00
2018-11-10T21:16:43.291Z,100.00
2018-11-10T21:19:13.203Z,100.00
2018-11-10T21:21:42.977Z,100.00
2018-11-10T21:24:12.766Z,100.00
2018-11-10T21:26:42.513Z,100.00
2018-11-10T21:29:12.541Z,100.00
2018-11-10T21:31:42.218Z,100.00
2018-11-10T21:34:12.189Z,100.00
2018-11-10T21:36:41.955Z,100.00
2018-11-10T21:39:12.154Z,100.00
2018-11-10T21:41:42.010Z,100.00
2018-11-10T21:44:11.823Z,100.00
2018-11-10T21:46:41.659Z,100.00
2018-11-10T21:49:11.518Z,100.00
2018-11-10T21:51:41.236Z,100.00
2018-11-10T21:54:11.083Z,100.00
2018-11-10T21:56:40.863Z,100.00
2018-11-10T21:59:10.748Z,100.00
2018-11-10T22:01:40.589Z,100.00
2018-11-10T22:04:10.500Z,100.00
2018-11-10T22:06:40.366Z,100.00
2018-11-10T22:09:11.906Z,100.00
2018-11-10T22:11:43.188Z,100.00
2018-11-10T22:14:13.155Z,100.00
2018-11-10T22:16:42.958Z,100.00
2018-11-10T22:19:12.843Z,100.00
2018-11-10T22:21:45.203Z,100.00
2018-11-10T22:24:15.326Z,100.00
2018-11-10T22:26:45.162Z,100.00
2018-11-10T22:29:15.015Z,100.00
2018-11-10T22:31:44.823Z,100.00
2018-11-10T22:34:14.752Z,100.00
2018-11-10T22:36:44.562Z,100.00
2018-11-10T22:39:14.358Z,100.00
2018-11-10T22:41:44.146Z,100.00
2018-11-10T22:44:14.026Z,100.00
2018-11-10T22:46:43.883Z,100.00
2018-11-10T22:49:14.443Z,100.00
2018-11-10T22:51:44.597Z,100.00
2018-11-10T22:54:14.586Z,100.00
2018-11-10T22:56:44.643Z,100.00
2018-11-10T22:59:14.532Z,100.00
2018-11-10T23:01:44.410Z,100.00
2018-11-10T23:04:14.442Z,100.00
2018-11-10T23:06:44.258Z,100.00
2018-11-10T23:09:14.078Z,100.00
2018-11-10T23:11:44.016Z,100.00
2018-11-10T23:14:13.887Z,100.00
2018-11-10T23:16:43.771Z,100.00
2018-11-10T23:19:13.645Z,100.00
2018-11-10T23:21:43.509Z,100.00
2018-11-10T23:24:13.291Z,100.00
2018-11-10T23:26:43.154Z,100.00
2018-11-10T23:29:12.906Z,100.00
2018-11-10T23:31:42.826Z,100.00
2018-11-10T23:34:12.669Z,100.00
2018-11-10T23:36:42.494Z,100.00
2018-11-10T23:39:13.082Z,100.00
2018-11-10T23:41:42.964Z,100.00
2018-11-10T23:44:12.745Z,100.00
2018-11-10T23:46:42.578Z,100.00
2018-11-10T23:49:12.563Z,100.00
2018-11-10T23:51:42.400Z,100.00
2018-11-10T23:54:12.250Z,100.00
2018-11-10T23:56:42.041Z,100.00
2018-11-10T23:59:11.855Z,100.00
